Time;durP1;ratioP1;P1;durP2;ratioP2;P2;SDS_P1;SDS_P2;PMS_P1;PMS_P2;Temp;Humidity;BMP_temperature;BMP_pressure;BME280_temperature;BME280_humidity;BME280_pressure;Samples;Min_cycle;Max_cycle;Signal;HPM_P1;HPM_P2
2021/03/05 00:00:19;;;;;;;4.17;2.20;;;8.30;99.90;;;;;;1943857;72;21052;-75
2021/03/05 00:02:45;;;;;;;3.47;2.25;;;8.30;99.90;;;;;;1943639;74;21070;-74
2021/03/05 00:05:12;;;;;;;3.37;2.60;;;8.40;99.90;;;;;;1944376;73;21159;-75
2021/03/05 00:07:38;;;;;;;5.80;2.45;;;8.40;99.90;;;;;;1943537;73;21144;-74
2021/03/05 00:10:04;;;;;;;4.35;2.50;;;8.30;99.90;;;;;;1945485;72;21094;-75
2021/03/05 00:12:31;;;;;;;7.20;2.77;;;8.30;99.90;;;;;;1946265;73;21106;-74
2021/03/05 00:14:57;;;;;;;2.67;2.33;;;8.40;99.90;;;;;;1945396;72;21140;-75
2021/03/05 00:17:23;;;;;;;5.40;2.92;;;8.40;99.90;;;;;;1944475;73;21153;-74
2021/03/05 00:19:49;;;;;;;5.75;3.98;;;8.50;99.90;;;;;;1944005;72;21071;-74
2021/03/05 00:22:15;;;;;;;9.85;4.67;;;8.50;99.90;;;;;;1943191;72;21188;-74
2021/03/05 00:24:42;;;;;;;6.25;4.25;;;8.40;99.90;;;;;;1943888;72;21082;-74
2021/03/05 00:27:09;;;;;;;7.30;4.80;;;8.30;99.90;;;;;;1944619;73;21152;-74
2021/03/05 00:29:35;;;;;;;7.75;5.25;;;8.10;99.90;;;;;;1943866;72;21491;-75
2021/03/05 00:32:01;;;;;;;8.88;5.65;;;8.00;99.90;;;;;;1934928;74;21113;-74
2021/03/05 00:34:27;;;;;;;8.33;5.87;;;8.00;99.90;;;;;;1940096;73;21148;-74
2021/03/05 00:36:55;;;;;;;9.73;5.90;;;7.90;99.90;;;;;;1943693;72;21144;-74
2021/03/05 00:39:21;;;;;;;7.45;5.87;;;7.90;99.90;;;;;;1942907;73;21553;-75
2021/03/05 00:41:47;;;;;;;7.80;5.15;;;7.80;99.90;;;;;;1941473;72;21511;-74
2021/03/05 00:44:13;;;;;;;8.43;5.80;;;7.80;99.90;;;;;;1945187;73;21518;-74
2021/03/05 00:46:39;;;;;;;11.10;6.22;;;7.80;99.90;;;;;;1943703;72;21165;-74
2021/03/05 00:49:05;;;;;;;11.40;6.62;;;7.80;99.90;;;;;;1943240;73;21262;-74
2021/03/05 00:51:31;;;;;;;10.43;6.87;;;7.80;99.90;;;;;;1943522;72;21090;-74
2021/03/05 00:53:58;;;;;;;8.93;5.65;;;7.70;99.90;;;;;;1940590;72;21140;-74
2021/03/05 00:56:24;;;;;;;10.20;5.85;;;7.60;99.90;;;;;;1939817;72;21156;-74
2021/03/05 00:58:50;;;;;;;12.37;7.50;;;7.60;99.90;;;;;;1944843;73;21144;-75
2021/03/05 01:01:16;;;;;;;14.90;8.38;;;7.50;99.90;;;;;;1946938;72;21132;-75
2021/03/05 01:03:42;;;;;;;16.32;8.65;;;7.20;99.90;;;;;;1937132;74;21040;-75
2021/03/05 01:06:08;;;;;;;14.18;9.18;;;7.00;99.90;;;;;;1944775;72;21074;-75
2021/03/05 01:08:34;;;;;;;14.38;8.93;;;6.80;99.90;;;;;;1942734;72;21119;-75
2021/03/05 01:11:00;;;;;;;17.30;9.15;;;6.70;99.90;;;;;;1943836;72;21074;-75
2021/03/05 01:13:27;;;;;;;14.15;9.68;;;6.70;99.90;;;;;;1944972;73;21078;-75
2021/03/05 01:15:53;;;;;;;19.30;10.60;;;6.60;99.90;;;;;;1942945;73;21100;-76
2021/03/05 01:18:19;;;;;;;20.10;9.05;;;6.60;99.90;;;;;;1940515;73;21083;-76
2021/03/05 01:20:45;;;;;;;16.20;10.23;;;6.50;99.90;;;;;;1941955;74;21193;-75
2021/03/05 01:23:11;;;;;;;17.20;10.53;;;6.50;99.90;;;;;;1937237;73;21702;-74
2021/03/05 01:25:37;;;;;;;19.95;10.90;;;6.40;99.90;;;;;;1944038;72;21519;-75
2021/03/05 01:28:03;;;;;;;15.50;10.45;;;6.30;99.90;;;;;;1944429;72;21527;-75
2021/03/05 01:30:29;;;;;;;20.05;10.90;;;6.30;99.90;;;;;;1944419;72;21547;-75
2021/03/05 01:32:56;;;;;;;15.58;10.48;;;6.20;99.90;;;;;;1943338;73;21601;-75
2021/03/05 01:35:22;;;;;;;17.23;9.90;;;6.10;99.90;;;;;;1943421;73;21193;-75
2021/03/05 01:37:48;;;;;;;17.65;10.63;;;6.10;99.90;;;;;;1938084;74;21104;-75
2021/03/05 01:40:14;;;;;;;18.37;9.98;;;6.00;99.90;;;;;;1942410;72;21319;-75
2021/03/05 01:42:40;;;;;;;18.65;11.35;;;5.90;99.90;;;;;;1944184;73;21153;-75
2021/03/05 01:45:06;;;;;;;24.05;11.20;;;5.80;99.90;;;;;;1943057;72;21051;-75
2021/03/05 01:47:32;;;;;;;25.48;12.15;;;5.80;99.90;;;;;;1940523;73;21156;-76
2021/03/05 01:49:58;;;;;;;18.70;11.43;;;5.70;99.90;;;;;;1945937;72;21126;-74
2021/03/05 01:52:24;;;;;;;20.25;10.88;;;5.70;99.90;;;;;;1944094;73;21051;-75
2021/03/05 01:54:51;;;;;;;22.75;11.45;;;5.60;99.90;;;;;;1938240;74;21092;-75
2021/03/05 01:57:17;;;;;;;18.17;11.18;;;5.70;99.90;;;;;;1938169;72;21278;-74
2021/03/05 01:59:43;;;;;;;20.77;11.08;;;5.70;99.90;;;;;;1938291;74;21067;-74
2021/03/05 02:02:09;;;;;;;18.70;10.58;;;5.60;99.90;;;;;;1934097;72;21156;-75
2021/03/05 02:04:35;;;;;;;20.72;11.73;;;5.50;99.90;;;;;;1943598;72;21032;-75
2021/03/05 02:07:01;;;;;;;27.50;11.85;;;5.40;99.90;;;;;;1944568;72;21079;-75
2021/03/05 02:09:27;;;;;;;21.10;11.83;;;5.30;99.90;;;;;;1943528;74;21070;-75
2021/03/05 02:11:53;;;;;;;30.90;13.15;;;5.30;99.90;;;;;;1943041;72;21186;-76
2021/03/05 02:14:20;;;;;;;21.85;11.48;;;5.40;99.90;;;;;;1939319;72;21088;-75
2021/03/05 02:16:46;;;;;;;23.20;11.68;;;5.40;99.90;;;;;;1939361;73;21483;-75
2021/03/05 02:19:12;;;;;;;20.45;11.30;;;5.30;99.90;;;;;;1938206;74;21075;-75
2021/03/05 02:21:38;;;;;;;23.83;12.18;;;5.40;99.90;;;;;;1940543;74;21082;-75
2021/03/05 02:24:05;;;;;;;19.85;12.13;;;5.30;99.90;;;;;;1941333;72;21141;-75
2021/03/05 02:26:31;;;;;;;19.02;11.15;;;5.20;99.90;;;;;;1939363;73;21048;-75
2021/03/05 02:28:57;;;;;;;20.50;10.90;;;5.20;99.90;;;;;;1939216;73;21070;-76
2021/03/05 02:31:24;;;;;;;19.45;10.98;;;5.20;99.90;;;;;;1941652;74;21486;-75
2021/03/05 02:33:50;;;;;;;21.95;11.38;;;5.30;99.90;;;;;;1939712;73;21492;-76
2021/03/05 02:36:16;;;;;;;19.40;10.65;;;5.20;99.90;;;;;;1942404;72;21075;-75
2021/03/05 02:38:42;;;;;;;23.07;10.82;;;5.20;99.90;;;;;;1945986;72;21092;-75
2021/03/05 02:41:08;;;;;;;16.87;10.13;;;5.20;99.90;;;;;;1947140;72;21070;-75
2021/03/05 02:43:34;;;;;;;17.00;10.75;;;5.20;99.90;;;;;;1945938;72;21107;-75
2021/03/05 02:46:02;;;;;;;17.32;10.65;;;5.20;99.90;;;;;;1944594;74;21615;-75
2021/03/05 02:48:28;;;;;;;21.42;10.53;;;5.20;99.90;;;;;;1939813;73;21515;-75
2021/03/05 02:50:54;;;;;;;22.02;11.38;;;5.30;99.90;;;;;;1939990;73;21610;-74
2021/03/05 02:53:20;;;;;;;23.67;10.93;;;5.20;99.90;;;;;;1938367;73;21638;-74
2021/03/05 02:55:46;;;;;;;26.02;11.90;;;5.10;99.90;;;;;;1942602;72;21083;-75
2021/03/05 02:58:12;;;;;;;18.95;10.23;;;5.10;99.90;;;;;;1941445;72;21181;-75
2021/03/05 03:00:38;;;;;;;21.80;11.38;;;5.10;99.90;;;;;;1934111;72;21153;-75
2021/03/05 03:03:04;;;;;;;20.72;10.60;;;5.10;99.90;;;;;;1946014;72;21096;-76
2021/03/05 03:05:31;;;;;;;21.97;10.85;;;5.10;99.90;;;;;;1946170;73;21154;-75
2021/03/05 03:07:57;;;;;;;15.45;9.60;;;5.10;99.90;;;;;;1944814;73;21100;-75
2021/03/05 03:10:23;;;;;;;19.17;10.40;;;5.00;99.90;;;;;;1944578;73;21142;-75
2021/03/05 03:12:49;;;;;;;19.75;10.00;;;5.00;99.90;;;;;;1941419;74;21115;-75
2021/03/05 03:15:15;;;;;;;18.23;8.95;;;4.90;99.90;;;;;;1939381;72;21043;-75
2021/03/05 03:17:42;;;;;;;16.87;10.08;;;5.00;99.90;;;;;;1941817;72;21079;-75
2021/03/05 03:20:08;;;;;;;23.98;10.00;;;5.00;99.90;;;;;;1937836;72;21047;-75
2021/03/05 03:22:34;;;;;;;17.67;9.18;;;5.00;99.90;;;;;;1941279;72;21108;-75
2021/03/05 03:25:00;;;;;;;20.48;10.98;;;4.90;99.90;;;;;;1935994;72;21144;-75
2021/03/05 03:27:26;;;;;;;13.55;8.48;;;4.90;99.90;;;;;;1944483;74;21266;-75
2021/03/05 03:29:52;;;;;;;16.75;9.18;;;4.80;99.90;;;;;;1938768;74;21086;-75
2021/03/05 03:32:18;;;;;;;19.82;9.58;;;4.80;99.90;;;;;;1944332;72;21555;-75
2021/03/05 03:34:44;;;;;;;18.07;9.00;;;4.80;99.90;;;;;;1940677;73;21450;-75
2021/03/05 03:37:11;;;;;;;17.73;9.18;;;4.90;99.90;;;;;;1943591;74;21542;-75
2021/03/05 03:39:37;;;;;;;14.75;8.15;;;4.90;99.90;;;;;;1939104;72;21079;-75
2021/03/05 03:42:03;;;;;;;16.52;9.25;;;4.90;99.90;;;;;;1946153;72;21078;-74
2021/03/05 03:44:29;;;;;;;18.48;9.78;;;4.90;99.90;;;;;;1937835;74;21140;-75
2021/03/05 03:46:56;;;;;;;22.73;9.05;;;4.90;99.90;;;;;;1945819;72;21079;-75
2021/03/05 03:49:22;;;;;;;14.23;8.83;;;4.90;99.90;;;;;;1943143;73;21091;-75
2021/03/05 03:51:48;;;;;;;14.47;8.83;;;4.90;99.90;;;;;;1942479;72;21112;-76
2021/03/05 03:54:14;;;;;;;20.08;8.78;;;4.90;99.90;;;;;;1938234;72;21502;-75
2021/03/05 03:56:41;;;;;;;14.33;8.68;;;4.80;99.90;;;;;;1943927;72;21204;-74
2021/03/05 03:59:07;;;;;;;16.73;9.25;;;4.80;99.90;;;;;;1943935;73;21232;-74
2021/03/05 04:01:33;;;;;;;16.48;8.98;;;4.80;99.90;;;;;;1938605;72;21112;-75
2021/03/05 04:03:59;;;;;;;14.65;8.18;;;4.80;99.90;;;;;;1942173;73;21070;-75
2021/03/05 04:06:25;;;;;;;16.82;8.93;;;4.80;99.90;;;;;;1940510;74;21094;-76
2021/03/05 04:08:52;;;;;;;13.25;7.90;;;4.90;99.90;;;;;;1946164;72;21084;-75
2021/03/05 04:11:18;;;;;;;15.25;7.95;;;4.90;99.90;;;;;;1943457;73;21167;-75
2021/03/05 04:13:44;;;;;;;13.03;7.87;;;4.90;99.90;;;;;;1943068;72;21079;-75
2021/03/05 04:16:10;;;;;;;13.48;7.85;;;4.90;99.90;;;;;;1941760;74;21149;-75
2021/03/05 04:18:36;;;;;;;15.20;8.20;;;4.80;99.90;;;;;;1941572;73;21156;-75
2021/03/05 04:21:02;;;;;;;10.28;7.25;;;4.80;99.90;;;;;;1943071;73;21067;-75
2021/03/05 04:23:28;;;;;;;14.50;7.75;;;4.80;99.90;;;;;;1943419;72;21044;-75
2021/03/05 04:25:55;;;;;;;9.25;6.58;;;4.80;99.90;;;;;;1939317;73;21070;-75
2021/03/05 04:28:21;;;;;;;9.75;6.67;;;4.80;99.90;;;;;;1945379;72;21213;-75
2021/03/05 04:30:47;;;;;;;11.73;7.10;;;4.70;99.90;;;;;;1944660;72;21195;-75
2021/03/05 04:33:13;;;;;;;13.72;7.03;;;4.70;99.90;;;;;;1937371;73;21079;-75
2021/03/05 04:35:39;;;;;;;10.32;6.53;;;4.70;99.90;;;;;;1944529;73;21083;-75
2021/03/05 04:38:05;;;;;;;10.30;6.87;;;4.70;99.90;;;;;;1943374;72;21629;-75
2021/03/05 04:40:31;;;;;;;16.20;7.55;;;4.70;99.90;;;;;;1939193;73;21139;-75
2021/03/05 04:42:57;;;;;;;13.35;7.60;;;4.70;99.90;;;;;;1942482;72;21472;-75
2021/03/05 04:45:24;;;;;;;17.42;7.33;;;4.70;99.90;;;;;;1944437;74;21504;-74
2021/03/05 04:47:50;;;;;;;8.53;5.83;;;4.70;99.90;;;;;;1945743;72;21225;-75
2021/03/05 04:50:16;;;;;;;9.25;6.25;;;4.70;99.90;;;;;;1941719;73;21197;-75
2021/03/05 04:52:42;;;;;;;9.65;6.10;;;4.70;99.90;;;;;;1941969;72;21110;-75
2021/03/05 04:55:08;;;;;;;12.63;6.55;;;4.60;99.90;;;;;;1943169;73;21099;-76
2021/03/05 04:57:34;;;;;;;8.80;6.08;;;4.60;99.90;;;;;;1938246;74;21083;-75
2021/03/05 05:00:00;;;;;;;8.98;6.60;;;4.60;99.90;;;;;;1943399;72;21104;-74
2021/03/05 05:02:26;;;;;;;8.00;6.10;;;4.60;99.90;;;;;;1947240;73;21208;-75
2021/03/05 05:04:52;;;;;;;8.28;5.83;;;4.50;99.90;;;;;;1938416;73;21074;-75
2021/03/05 05:07:19;;;;;;;9.58;6.47;;;4.50;99.90;;;;;;1944403;72;21205;-76
2021/03/05 05:09:45;;;;;;;9.03;6.30;;;4.60;99.90;;;;;;1942820;72;21088;-74
2021/03/05 05:12:11;;;;;;;7.50;5.83;;;4.60;99.90;;;;;;1939819;73;21160;-76
2021/03/05 05:14:37;;;;;;;7.97;5.53;;;4.60;99.90;;;;;;1939759;73;21475;-74
2021/03/05 05:17:03;;;;;;;8.48;5.97;;;4.60;99.90;;;;;;1937780;72;21482;-74
2021/03/05 05:19:29;;;;;;;13.30;6.30;;;4.60;99.90;;;;;;1939873;72;21487;-74
2021/03/05 05:21:55;;;;;;;8.23;6.20;;;4.60;99.90;;;;;;1943047;73;21075;-75
2021/03/05 05:24:21;;;;;;;8.98;5.55;;;4.60;99.90;;;;;;1941837;72;21150;-75
2021/03/05 05:26:48;;;;;;;13.62;5.62;;;4.50;99.90;;;;;;1948829;72;21210;-75
2021/03/05 05:29:14;;;;;;;7.65;5.42;;;4.60;99.90;;;;;;1943283;74;21091;-74
2021/03/05 05:31:40;;;;;;;8.28;5.50;;;4.60;99.90;;;;;;1935186;73;21156;-75
2021/03/05 05:34:06;;;;;;;11.03;5.83;;;4.60;99.90;;;;;;1938659;73;21059;-76
2021/03/05 05:36:32;;;;;;;8.88;5.47;;;4.60;99.90;;;;;;1944985;72;21087;-75
2021/03/05 05:38:58;;;;;;;7.20;5.42;;;4.70;99.90;;;;;;1938285;72;21557;-74
2021/03/05 05:41:24;;;;;;;9.73;6.12;;;4.60;99.90;;;;;;1941548;72;21627;-74
2021/03/05 05:43:50;;;;;;;7.97;5.33;;;4.60;99.90;;;;;;1945574;73;21498;-74
2021/03/05 05:46:17;;;;;;;9.68;5.10;;;4.70;99.90;;;;;;1938954;72;21036;-74
2021/03/05 05:48:43;;;;;;;8.60;5.37;;;4.60;99.90;;;;;;1942324;74;21083;-77
2021/03/05 05:51:09;;;;;;;7.08;4.53;;;4.60;99.90;;;;;;1939330;72;21067;-74
2021/03/05 05:53:35;;;;;;;7.55;4.55;;;4.60;99.90;;;;;;1942296;72;21107;-75
2021/03/05 05:56:01;;;;;;;6.75;4.30;;;4.70;99.90;;;;;;1944697;72;21063;-75
2021/03/05 05:58:28;;;;;;;8.23;5.05;;;4.60;99.90;;;;;;1943704;72;21071;-75
2021/03/05 06:00:54;;;;;;;7.80;5.28;;;4.60;99.90;;;;;;1943636;72;21486;-76
2021/03/05 06:03:20;;;;;;;8.55;4.95;;;4.50;99.90;;;;;;1948303;72;21097;-74
2021/03/05 06:05:46;;;;;;;6.62;4.47;;;4.50;99.90;;;;;;1938830;72;21436;-75
2021/03/05 06:08:12;;;;;;;9.98;5.00;;;4.50;99.90;;;;;;1946021;72;21199;-75
2021/03/05 06:10:38;;;;;;;6.97;4.78;;;4.50;99.90;;;;;;1946749;73;21070;-75
2021/03/05 06:13:06;;;;;;;9.50;5.67;;;4.60;99.90;;;;;;1940469;72;21290;-75
2021/03/05 06:15:32;;;;;;;7.65;4.58;;;4.60;99.90;;;;;;1949016;72;21152;-75
2021/03/05 06:17:58;;;;;;;6.80;4.67;;;4.50;99.90;;;;;;1943019;74;21092;-76
2021/03/05 06:20:24;;;;;;;8.08;5.08;;;4.60;99.90;;;;;;1941459;74;21040;-75
2021/03/05 06:22:50;;;;;;;10.70;4.80;;;4.60;99.90;;;;;;1943564;72;21189;-75
2021/03/05 06:25:16;;;;;;;11.65;5.62;;;4.60;99.90;;;;;;1944548;74;21490;-76
2021/03/05 06:27:42;;;;;;;7.17;5.25;;;4.60;99.90;;;;;;1943842;72;21645;-76
2021/03/05 06:30:08;;;;;;;7.37;5.05;;;4.50;99.90;;;;;;1942100;74;21508;-75
2021/03/05 06:32:35;;;;;;;7.92;5.03;;;4.50;99.90;;;;;;1940908;72;21074;-76
2021/03/05 06:35:01;;;;;;;11.43;4.92;;;4.50;99.90;;;;;;1943350;73;21137;-74
2021/03/05 06:37:27;;;;;;;9.95;5.50;;;4.50;99.90;;;;;;1944351;73;21205;-72
2021/03/05 06:39:53;;;;;;;8.98;5.85;;;4.60;99.90;;;;;;1945276;73;21104;-73
2021/03/05 06:42:19;;;;;;;8.25;5.72;;;4.50;99.90;;;;;;1942377;72;21075;-73
2021/03/05 06:44:45;;;;;;;7.75;4.90;;;4.50;99.90;;;;;;1941397;72;21100;-72
2021/03/05 06:47:12;;;;;;;10.98;5.35;;;4.50;99.90;;;;;;1934343;74;21074;-73
2021/03/05 06:49:38;;;;;;;7.75;4.62;;;4.50;99.90;;;;;;1944426;74;21079;-73
2021/03/05 06:52:04;;;;;;;8.00;4.90;;;4.50;99.90;;;;;;1947539;73;21078;-72
2021/03/05 06:54:30;;;;;;;10.32;5.60;;;4.50;99.90;;;;;;1946000;73;21066;-74
2021/03/05 06:56:56;;;;;;;9.80;5.42;;;4.50;99.90;;;;;;1943068;73;21163;-73
2021/03/05 06:59:22;;;;;;;7.60;5.03;;;4.50;99.90;;;;;;1944410;73;21122;-73
2021/03/05 07:01:49;;;;;;;12.70;5.80;;;4.50;99.90;;;;;;1938080;72;21078;-74
2021/03/05 07:04:15;;;;;;;9.98;5.25;;;4.50;99.90;;;;;;1943490;74;21067;-74
2021/03/05 07:06:41;;;;;;;6.62;5.10;;;4.40;99.90;;;;;;1944498;72;21133;-74
2021/03/05 07:09:07;;;;;;;10.20;5.17;;;4.40;99.90;;;;;;1939301;74;22599;-74
2021/03/05 07:11:34;;;;;;;11.22;6.20;;;4.40;99.90;;;;;;1943067;72;21197;-73
2021/03/05 07:14:01;;;;;;;9.25;6.28;;;4.40;99.90;;;;;;1938368;72;21075;-72
2021/03/05 07:16:27;;;;;;;10.55;5.47;;;4.40;99.90;;;;;;1942294;72;21080;-73
2021/03/05 07:18:53;;;;;;;9.05;6.05;;;4.30;99.90;;;;;;1948706;73;21043;-75
2021/03/05 07:21:19;;;;;;;6.42;4.62;;;4.40;99.90;;;;;;1947110;73;21148;-73
2021/03/05 07:23:45;;;;;;;7.72;5.12;;;4.40;99.90;;;;;;1944774;72;21086;-73
2021/03/05 07:26:11;;;;;;;8.35;4.90;;;4.40;99.90;;;;;;1944510;72;21458;-74
2021/03/05 07:28:38;;;;;;;16.42;5.15;;;4.40;99.90;;;;;;1938530;72;21136;-75
2021/03/05 07:31:04;;;;;;;9.30;4.83;;;4.40;99.90;;;;;;1945336;73;21048;-76
2021/03/05 07:33:30;;;;;;;9.73;5.58;;;4.50;99.90;;;;;;1942630;72;21035;-73
2021/03/05 07:35:56;;;;;;;9.73;5.17;;;4.50;99.90;;;;;;1943581;73;21078;-74
2021/03/05 07:38:23;;;;;;;10.28;5.72;;;4.30;99.90;;;;;;1937461;72;21170;-72
2021/03/05 07:40:49;;;;;;;7.40;5.08;;;4.30;99.90;;;;;;1942819;72;21144;-72
2021/03/05 07:43:16;;;;;;;9.53;5.22;;;4.40;99.90;;;;;;1944452;72;21075;-72
2021/03/05 07:45:42;;;;;;;7.20;5.17;;;4.50;99.90;;;;;;1937026;74;21074;-73
2021/03/05 07:48:08;;;;;;;8.75;5.87;;;4.50;99.90;;;;;;1938946;73;21144;-72
2021/03/05 07:50:34;;;;;;;7.37;5.25;;;4.50;99.90;;;;;;1940666;73;21072;-74
2021/03/05 07:53:00;;;;;;;10.75;5.37;;;4.50;99.90;;;;;;1940863;72;21071;-74
2021/03/05 07:55:26;;;;;;;11.33;5.62;;;4.40;99.90;;;;;;1945923;72;21074;-72
2021/03/05 07:57:52;;;;;;;10.93;5.35;;;4.40;99.90;;;;;;1940286;73;21148;-73
2021/03/05 08:00:18;;;;;;;11.10;6.00;;;4.50;99.90;;;;;;1944914;73;21075;-71
2021/03/05 08:02:45;;;;;;;10.32;5.80;;;4.40;99.90;;;;;;1943192;73;21076;-73
2021/03/05 08:05:14;;;;;;;10.93;5.45;;;4.40;99.90;;;;;;1941834;72;21066;-73
2021/03/05 08:07:38;;;;;;;10.13;5.87;;;4.50;99.90;;;;;;1945442;72;21488;-72
2021/03/05 08:10:05;;;;;;;9.88;5.70;;;4.60;99.90;;;;;;1945704;72;21444;-72
2021/03/05 08:12:45;;;;;;;9.70;6.05;;;4.60;99.90;;;;;;1946690;72;21564;-71
2021/03/05 08:15:11;;;;;;;8.53;5.42;;;4.70;99.90;;;;;;1944166;73;21107;-72
2021/03/05 08:17:39;;;;;;;18.27;6.25;;;4.80;99.90;;;;;;1940453;73;21051;-74
2021/03/05 08:20:06;;;;;;;11.25;5.92;;;4.80;99.90;;;;;;1944167;73;21091;-71
2021/03/05 08:22:33;;;;;;;9.93;5.92;;;4.80;99.90;;;;;;1944069;72;21071;-72
2021/03/05 08:24:59;;;;;;;11.38;6.05;;;4.80;99.90;;;;;;1944028;72;21487;-71
2021/03/05 08:27:25;;;;;;;7.90;5.17;;;4.80;99.90;;;;;;1937280;72;21565;-72
2021/03/05 08:29:53;;;;;;;9.33;5.22;;;4.80;99.90;;;;;;1943577;72;21062;-72
2021/03/05 08:32:19;;;;;;;11.93;4.97;;;4.80;99.90;;;;;;1943269;74;21183;-71
2021/03/05 08:34:45;;;;;;;9.50;6.10;;;4.90;99.90;;;;;;1936983;72;21470;-72
2021/03/05 08:37:11;;;;;;;9.00;5.47;;;4.90;99.90;;;;;;1947566;73;21116;-73
2021/03/05 08:39:37;;;;;;;8.53;5.40;;;4.90;99.90;;;;;;1948373;73;21455;-71
2021/03/05 08:42:03;;;;;;;10.05;5.97;;;5.00;99.90;;;;;;1944098;72;21146;-74
2021/03/05 08:44:30;;;;;;;11.97;6.83;;;4.90;99.90;;;;;;1929921;72;21076;-73
2021/03/05 08:46:56;;;;;;;7.83;5.00;;;4.90;99.90;;;;;;1931888;72;21076;-73
2021/03/05 08:49:24;;;;;;;7.60;5.55;;;4.90;99.90;;;;;;1925565;72;21077;-72
2021/03/05 08:51:50;;;;;;;13.90;6.08;;;5.00;99.90;;;;;;1918534;73;21410;-73
2021/03/05 08:54:16;;;;;;;12.23;6.03;;;4.90;99.90;;;;;;1932665;72;21573;-73
2021/03/05 08:56:42;;;;;;;11.55;6.00;;;5.00;99.90;;;;;;1924922;72;21158;-73
2021/03/05 08:59:09;;;;;;;12.40;6.08;;;5.10;99.90;;;;;;1920126;73;21080;-73
2021/03/05 09:01:35;;;;;;;9.75;5.33;;;5.20;99.90;;;;;;1922387;74;21158;-73
2021/03/05 09:04:02;;;;;;;9.65;6.55;;;4.90;99.90;;;;;;1922333;74;21154;-73
2021/03/05 09:06:28;;;;;;;15.35;5.55;;;5.00;99.90;;;;;;1915432;74;21073;-73
2021/03/05 09:08:54;;;;;;;11.50;5.90;;;5.10;99.90;;;;;;1924926;73;21079;-72
2021/03/05 09:11:20;;;;;;;11.80;5.72;;;5.30;99.90;;;;;;1920067;73;21154;-71
2021/03/05 09:13:46;;;;;;;9.10;5.72;;;5.30;99.90;;;;;;1932669;72;21141;-72
2021/03/05 09:16:12;;;;;;;9.85;5.80;;;5.30;99.90;;;;;;1915431;73;21072;-71
2021/03/05 09:18:39;;;;;;;8.48;5.45;;;5.40;99.90;;;;;;1932709;72;21089;-71
2021/03/05 09:21:05;;;;;;;9.30;5.80;;;5.40;99.90;;;;;;1936458;72;21724;-71
2021/03/05 09:23:36;;;;;;;11.48;5.67;;;5.30;99.90;;;;;;1927020;72;21513;-71
2021/03/05 09:26:01;;;;;;;;;;;5.00;99.90;;;;;;1922918;74;21073;-73
2021/03/05 09:28:27;;;;;;;7.28;4.80;;;5.10;99.90;;;;;;1920200;72;20120;-72
2021/03/05 09:30:54;;;;;;;14.07;6.47;;;5.30;99.90;;;;;;1921775;72;21049;-71
2021/03/05 09:33:20;;;;;;;8.63;5.40;;;5.40;99.90;;;;;;1915366;73;21050;-72
2021/03/05 09:35:46;;;;;;;8.93;5.70;;;5.40;99.90;;;;;;1920131;73;21080;-73
2021/03/05 09:38:12;;;;;;;9.33;5.80;;;5.50;99.90;;;;;;1920027;72;21166;-73
2021/03/05 09:40:38;;;;;;;10.15;5.45;;;5.40;99.90;;;;;;1915564;74;21139;-72
2021/03/05 09:43:04;;;;;;;10.25;5.00;;;5.40;99.90;;;;;;1916928;73;21562;-73
2021/03/05 09:45:30;;;;;;;7.92;5.12;;;5.30;99.90;;;;;;1928075;73;21438;-72
2021/03/05 09:47:56;;;;;;;9.73;5.78;;;5.30;99.90;;;;;;1925376;73;21045;-73
2021/03/05 09:50:23;;;;;;;10.00;5.37;;;5.30;99.90;;;;;;1915548;73;21072;-73
2021/03/05 09:52:49;;;;;;;9.40;5.45;;;5.30;99.90;;;;;;1929491;72;21081;-72
2021/03/05 09:55:15;;;;;;;9.60;5.92;;;5.40;99.90;;;;;;1932618;73;21169;-73
2021/03/05 09:57:41;;;;;;;12.93;6.05;;;5.30;99.90;;;;;;1922343;73;21489;-72
2021/03/05 10:00:07;;;;;;;11.28;5.35;;;5.30;99.90;;;;;;1917817;74;21493;-72
2021/03/05 10:02:33;;;;;;;7.08;4.95;;;5.30;99.90;;;;;;1921744;73;21481;-72
2021/03/05 10:04:59;;;;;;;8.68;5.05;;;5.20;99.90;;;;;;1922873;73;21592;-71
2021/03/05 10:07:26;;;;;;;8.80;5.33;;;5.40;99.90;;;;;;1923461;73;21073;-70
2021/03/05 10:09:52;;;;;;;8.88;4.83;;;5.30;99.90;;;;;;1921675;73;21077;-71
2021/03/05 10:12:18;;;;;;;12.35;5.75;;;5.20;99.90;;;;;;1929182;72;21080;-71
2021/03/05 10:14:44;;;;;;;9.33;5.62;;;5.30;99.90;;;;;;1936293;73;21193;-71
2021/03/05 10:17:10;;;;;;;12.95;5.75;;;5.40;99.90;;;;;;1935272;73;21045;-71
2021/03/05 10:19:36;;;;;;;7.42;5.17;;;5.50;99.90;;;;;;1933800;74;21138;-72
2021/03/05 10:22:02;;;;;;;11.43;5.80;;;5.50;99.90;;;;;;1930269;72;21268;-72
2021/03/05 10:24:28;;;;;;;11.12;5.60;;;5.60;99.90;;;;;;1920092;72;21146;-71
2021/03/05 10:29:39;;;;;;;13.68;5.85;;;5.80;99.90;;;;;;1920089;73;21098;-72
2021/03/05 10:32:05;;;;;;;8.28;5.05;;;5.80;99.90;;;;;;1921436;72;21146;-71
2021/03/05 10:34:31;;;;;;;15.55;5.05;;;5.60;99.90;;;;;;1915363;73;21154;-75
2021/03/05 10:36:57;;;;;;;7.00;5.30;;;5.80;99.90;;;;;;1922846;72;21049;-72
2021/03/05 10:39:23;;;;;;;10.88;5.47;;;5.60;99.90;;;;;;1922123;74;21158;-72
2021/03/05 10:41:49;;;;;;;10.48;5.17;;;5.70;99.90;;;;;;1929429;72;21085;-77
2021/03/05 10:44:15;;;;;;;14.73;6.20;;;5.70;99.90;;;;;;1917015;74;21073;-74
2021/03/05 10:46:42;;;;;;;10.28;5.12;;;5.60;99.90;;;;;;1924925;72;21084;-74
2021/03/05 10:49:08;;;;;;;11.70;5.80;;;5.80;99.90;;;;;;1920294;74;21208;-75
2021/03/05 10:51:34;;;;;;;8.90;4.97;;;5.80;99.90;;;;;;1915454;73;21101;-74
2021/03/05 10:54:00;;;;;;;10.00;5.53;;;6.00;99.90;;;;;;1920020;72;21203;-74
2021/03/05 10:56:26;;;;;;;11.43;6.12;;;6.00;99.90;;;;;;1920129;73;21072;-74
2021/03/05 10:58:53;;;;;;;10.03;6.25;;;6.10;99.90;;;;;;1920079;73;21138;-74
2021/03/05 11:01:19;;;;;;;14.43;5.95;;;6.10;99.90;;;;;;1924957;73;21072;-74
2021/03/05 11:03:45;;;;;;;15.55;5.97;;;6.00;99.90;;;;;;1926281;73;21066;-76
2021/03/05 11:06:11;;;;;;;10.18;5.33;;;6.00;99.90;;;;;;1929662;73;21155;-77
2021/03/05 11:08:37;;;;;;;9.45;5.45;;;5.90;99.90;;;;;;1934311;72;21069;-72
2021/03/05 11:11:03;;;;;;;8.28;4.87;;;6.00;99.90;;;;;;1920465;74;21150;-76
2021/03/05 11:13:29;;;;;;;8.95;5.62;;;6.00;99.90;;;;;;1921630;72;21076;-74
2021/03/05 11:15:56;;;;;;;10.63;5.40;;;6.10;99.90;;;;;;1925357;72;21231;-74
2021/03/05 11:18:22;;;;;;;11.28;5.08;;;6.20;99.90;;;;;;1926885;73;21158;-75
2021/03/05 11:20:48;;;;;;;8.48;5.42;;;6.20;99.90;;;;;;1918234;73;21086;-72
2021/03/05 11:23:14;;;;;;;8.45;5.25;;;6.20;99.90;;;;;;1925756;72;21150;-74
2021/03/05 11:25:40;;;;;;;11.05;5.33;;;6.20;99.90;;;;;;1921980;73;21084;-75
2021/03/05 11:28:06;;;;;;;16.52;5.30;;;6.30;99.90;;;;;;1936149;73;21073;-75
2021/03/05 11:30:32;;;;;;;9.05;5.20;;;6.40;99.90;;;;;;1925029;73;21561;-74
2021/03/05 11:32:59;;;;;;;7.95;4.60;;;6.30;99.90;;;;;;1920372;74;21486;-75
2021/03/05 11:35:25;;;;;;;9.10;5.25;;;6.20;99.90;;;;;;1921164;73;21426;-75
2021/03/05 11:37:51;;;;;;;6.15;4.65;;;6.30;99.90;;;;;;1919483;74;21583;-74
2021/03/05 11:40:17;;;;;;;8.30;4.42;;;6.20;99.90;;;;;;1931085;72;21150;-74
2021/03/05 11:42:43;;;;;;;8.93;4.78;;;6.20;99.90;;;;;;1920183;73;21076;-73
2021/03/05 11:45:09;;;;;;;6.53;5.03;;;6.20;99.90;;;;;;1919976;73;21211;-74
2021/03/05 11:47:35;;;;;;;9.45;4.50;;;6.20;99.90;;;;;;1919614;74;21081;-74
2021/03/05 11:50:01;;;;;;;8.45;4.95;;;6.20;99.90;;;;;;1915477;74;21037;-74
2021/03/05 11:52:28;;;;;;;9.08;4.83;;;6.30;99.90;;;;;;1915431;73;21080;-74
2021/03/05 11:54:54;;;;;;;9.85;4.70;;;6.30;99.90;;;;;;1915426;74;21150;-74
2021/03/05 11:57:20;;;;;;;6.72;4.50;;;6.20;99.90;;;;;;1921216;74;21159;-74
2021/03/05 11:59:46;;;;;;;8.68;4.87;;;6.20;99.90;;;;;;1925598;72;21223;-74
2021/03/05 12:02:12;;;;;;;11.57;5.53;;;6.20;99.90;;;;;;1925701;72;21562;-74
2021/03/05 12:04:38;;;;;;;11.45;4.92;;;6.20;99.90;;;;;;1925119;72;21500;-72
2021/03/05 12:07:04;;;;;;;12.40;4.95;;;6.20;99.90;;;;;;1926032;73;21622;-72
2021/03/05 12:09:30;;;;;;;6.42;4.60;;;6.20;99.90;;;;;;1931037;72;21559;-74
2021/03/05 12:11:57;;;;;;;11.38;5.35;;;6.10;99.90;;;;;;1926632;73;21069;-72
2021/03/05 12:14:23;;;;;;;7.62;5.15;;;6.10;99.90;;;;;;1929482;72;21154;-74
2021/03/05 12:16:49;;;;;;;8.20;4.70;;;6.10;99.90;;;;;;1920353;72;21156;-73
2021/03/05 12:19:15;;;;;;;6.22;4.78;;;6.10;99.90;;;;;;1921943;73;21124;-73
2021/03/05 12:21:41;;;;;;;9.78;4.47;;;6.20;99.90;;;;;;1920362;73;21037;-73
2021/03/05 12:24:08;;;;;;;9.58;5.25;;;6.30;99.90;;;;;;1925156;72;21135;-72
2021/03/05 12:26:34;;;;;;;6.55;4.83;;;6.10;99.90;;;;;;1925218;72;21076;-72
2021/03/05 12:29:00;;;;;;;7.17;4.53;;;6.10;99.90;;;;;;1925046;72;21444;-71
2021/03/05 12:31:26;;;;;;;8.80;5.22;;;6.10;99.90;;;;;;1920230;73;21472;-72
2021/03/05 12:33:54;;;;;;;6.65;4.08;;;6.30;99.90;;;;;;1924817;73;21586;-74
2021/03/05 12:36:20;;;;;;;7.67;5.22;;;6.40;99.90;;;;;;1921434;72;21066;-73
2021/03/05 12:38:46;;;;;;;8.35;5.17;;;6.30;99.90;;;;;;1921065;72;21216;-74
2021/03/05 12:41:12;;;;;;;8.55;4.83;;;6.40;99.90;;;;;;1934674;73;21473;-73
2021/03/05 12:43:38;;;;;;;7.50;4.75;;;6.50;99.90;;;;;;1920110;73;21496;-73
2021/03/05 12:46:04;;;;;;;8.60;5.17;;;6.30;99.90;;;;;;1926485;73;21527;-73